This is the latest recevied weather packets stored in our database for station/object DL2DHM-13. If no packets are shown the sender has not sent any weather packets the latest 10 day(s).
| Time | Temp. | Humidity | Pressure | Rain* | Wind** | Luminosity | Snow |
|---|---|---|---|---|---|---|---|
| 1777875646 | 14.44° C | 85% | 1011.2 hPa | 0 mm | - | 144 W/m² | - |
| 1777875044 | 14.44° C | 85% | 1011 hPa | 0 mm | - | 109 W/m² | - |
| 1777873541 | 13.89° C | 85% | 1011 hPa | 0 mm | - | 63 W/m² | - |
| 1777871436 | 13.33° C | 85% | 1010.6 hPa | 0 mm | - | 26 W/m² | - |
| 1777870536 | 13.33° C | 84% | 1010.6 hPa | 0 mm | - | 18 W/m² | - |
| 1777869634 | 13.33° C | 83% | 1010.6 hPa | 0 mm | - | 14 W/m² | - |
| 1777869035 | 13.33° C | 82% | 1010.6 hPa | 0 mm | - | 7 W/m² | - |
| 1777863022 | 13.89° C | 77% | 1010.5 hPa | 0 mm | - | 0 W/m² | - |
| 1777860618 | 14.44° C | 75% | 1010.2 hPa | 0 mm | - | 0 W/m² | - |
| 1777860021 | 14.44° C | 75% | 1010.2 hPa | 0 mm | - | 0 W/m² | - |
| 1777859418 | 14.44° C | 75% | 1010.2 hPa | 0 mm | - | 0 W/m² | - |
| 1777859120 | 14.44° C | 75% | 1010.2 hPa | 0 mm | - | 0 W/m² | - |
| 1777858818 | 14.44° C | 75% | 1010.2 hPa | 0 mm | - | 0 W/m² | - |
| 1777857317 | 13.89° C | 77% | 1010.3 hPa | 0 mm | - | 0 W/m² | - |
| 1777853713 | 13.89° C | 79% | 1010.3 hPa | 0 mm | - | 0 W/m² | - |
| 1777850413 | 13.89° C | 81% | 1010.1 hPa | 0 mm | - | 0 W/m² | - |
| 1777848905 | 13.89° C | 82% | 1010.1 hPa | 0 mm | - | 0 W/m² | - |
| 1777848303 | 13.89° C | 80% | 1010.1 hPa | 0 mm | - | 0 W/m² | - |
| 1777847161 | 15° C | 78% | 1010.1 hPa | 0 mm | - | 0 W/m² | - |
| 1777846558 | 15° C | 78% | 1010 hPa | 0 mm | - | 0 W/m² | - |
| 1777842354 | 15.56° C | 78% | 1010.2 hPa | 0 mm | - | 0 W/m² | - |
| 1777842057 | 15.56° C | 77% | 1010.3 hPa | 0 mm | - | 0 W/m² | - |
| 1777840553 | 16.11° C | 75% | 1010.1 hPa | 0 mm | - | 0 W/m² | - |
| 1777836952 | 17.22° C | 69% | 1010 hPa | 0 mm | - | 0 W/m² | - |
| 1777835454 | 17.22° C | 68% | 1009.9 hPa | 0 mm | - | 0 W/m² | - |
* Rain latest hour (hover to see other rain measurements)
** Current wind speed in m/s (hover to see current wind gust speed)